Time;durP1;ratioP1;P1;durP2;ratioP2;P2;SDS_P1;SDS_P2;PMS_P1;PMS_P2;Temp;Humidity;BMP_temperature;BMP_pressure;BME280_temperature;BME280_humidity;BME280_pressure;Samples;Min_cycle;Max_cycle;Signal;HPM_P1;HPM_P2
2022/01/24 00:00:52;;;;;;;;;79.00;65.75;;;;;;;;5021533;28;51153;-46
2022/01/24 00:03:38;;;;;;;;;78.75;64.75;;;;;;;;5021907;28;51214;-47
2022/01/24 00:06:27;;;;;;;;;77.75;66.25;;;;;;;;5021007;28;51462;-45
2022/01/24 00:09:23;;;;;;;;;79.25;68.00;;;;;;;;5021321;28;51290;-48
2022/01/24 00:12:23;;;;;;;;;77.00;64.50;;;;;;;;5019794;28;51211;-46
2022/01/24 00:15:20;;;;;;;;;75.75;62.75;;;;;;;;5020005;28;51537;-45
2022/01/24 00:18:11;;;;;;;;;82.75;67.50;;;;;;;;5019475;28;51164;-44
2022/01/24 00:27:19;;;;;;;;;78.50;64.75;;;;;;;;5017378;28;52030;-48
2022/01/24 00:30:04;;;;;;;;;77.00;63.00;;;;;;;;5019248;28;51557;-48
2022/01/24 00:33:08;;;;;;;;;75.00;60.00;;;;;;;;5016584;28;52627;-45
2022/01/24 00:35:53;;;;;;;;;79.25;64.50;;;;;;;;5019590;28;51282;-47
2022/01/24 00:38:38;;;;;;;;;81.25;63.50;;;;;;;;5018454;28;51109;-46
2022/01/24 00:47:36;;;;;;;;;79.00;65.50;;;;;;;;5019333;28;51504;-45
2022/01/24 00:56:49;;;;;;;;;77.00;64.00;;;;;;;;5017045;28;51312;-46
2022/01/24 00:59:52;;;;;;;;;76.75;64.00;;;;;;;;5011504;28;51507;-45
2022/01/24 01:02:39;;;;;;;;;77.50;65.25;;;;;;;;5012510;28;51186;-52
2022/01/24 01:20:21;;;;;;;;;76.25;59.75;;;;;;;;5020097;28;51456;-47
2022/01/24 01:23:11;;;;;;;;;79.00;67.50;;;;;;;;5018489;28;51184;-48
2022/01/24 01:26:06;;;;;;;;;73.25;58.25;;;;;;;;5014768;28;51564;-45
2022/01/24 01:29:24;;;;;;;;;86.25;71.75;;;;;;;;5018329;28;51196;-47
2022/01/24 01:56:29;;;;;;;;;78.25;64.00;;;;;;;;5021178;28;51475;-45
2022/01/24 01:59:15;;;;;;;;;81.25;66.25;;;;;;;;5022268;28;51201;-48
2022/01/24 02:02:01;;;;;;;;;82.00;69.25;;;;;;;;5023897;28;52280;-45
2022/01/24 02:04:47;;;;;;;;;76.75;60.75;;;;;;;;5023522;28;51378;-48
2022/01/24 02:07:47;;;;;;;;;77.25;66.25;;;;;;;;5023597;28;51110;-49
2022/01/24 02:10:35;;;;;;;;;82.00;70.75;;;;;;;;5022630;28;51569;-49
2022/01/24 02:13:31;;;;;;;;;79.75;68.25;;;;;;;;5021309;28;51152;-50
2022/01/24 02:16:32;;;;;;;;;74.50;61.00;;;;;;;;5022844;28;51117;-49
2022/01/24 02:25:32;;;;;;;;;80.00;62.75;;;;;;;;5020515;28;51171;-48
2022/01/24 02:28:42;;;;;;;;;91.75;78.25;;;;;;;;5020559;28;51573;-46
2022/01/24 02:31:55;;;;;;;;;100.25;86.25;;;;;;;;5023023;28;51190;-42
2022/01/24 02:34:43;;;;;;;;;102.50;92.75;;;;;;;;5010568;28;51204;-45
2022/01/24 02:37:43;;;;;;;;;110.75;92.75;;;;;;;;5025223;28;51156;-45
2022/01/24 02:40:28;;;;;;;;;115.00;97.25;;;;;;;;5022801;28;51512;-48
2022/01/24 02:49:35;;;;;;;;;129.50;106.25;;;;;;;;5023114;28;51556;-46
2022/01/24 02:52:30;;;;;;;;;137.50;121.75;;;;;;;;5021388;28;51672;-45
2022/01/24 02:55:15;;;;;;;;;136.75;114.25;;;;;;;;5023696;28;51211;-46
2022/01/24 02:58:02;;;;;;;;;131.00;118.00;;;;;;;;5023138;28;51219;-46
2022/01/24 03:00:56;;;;;;;;;137.75;121.50;;;;;;;;5023135;28;51152;-48
2022/01/24 03:03:43;;;;;;;;;137.25;122.25;;;;;;;;5021121;28;51517;-45
2022/01/24 03:06:29;;;;;;;;;154.25;124.00;;;;;;;;5024472;28;51031;-49
2022/01/24 03:09:14;;;;;;;;;149.75;126.50;;;;;;;;5017216;28;51237;-47
2022/01/24 03:14:47;;;;;;;;;150.50;137.00;;;;;;;;5016703;28;51102;-45
2022/01/24 03:17:33;;;;;;;;;160.50;131.50;;;;;;;;5018691;28;51104;-49
2022/01/24 03:20:26;;;;;;;;;166.25;141.75;;;;;;;;5021662;28;51121;-46
2022/01/24 03:23:11;;;;;;;;;165.25;139.75;;;;;;;;5022646;28;51244;-43
2022/01/24 03:25:57;;;;;;;;;167.25;142.50;;;;;;;;5021194;28;51607;-48
2022/01/24 03:28:42;;;;;;;;;163.25;140.75;;;;;;;;5022265;28;51173;-48
2022/01/24 03:31:26;;;;;;;;;159.00;141.00;;;;;;;;5021367;28;52667;-46
2022/01/24 03:34:12;;;;;;;;;160.75;139.50;;;;;;;;5027406;28;51431;-46
2022/01/24 03:37:08;;;;;;;;;161.75;144.00;;;;;;;;5027021;28;51292;-46
2022/01/24 03:40:24;;;;;;;;;154.75;131.75;;;;;;;;5022554;28;51423;-47
2022/01/24 03:43:13;;;;;;;;;164.25;135.00;;;;;;;;5022187;28;52261;-49
2022/01/24 03:46:28;;;;;;;;;147.25;132.75;;;;;;;;5022489;28;51553;-50
2022/01/24 03:49:48;;;;;;;;;132.25;110.25;;;;;;;;5022649;28;51216;-46
2022/01/24 03:52:26;;;;;;;;;121.50;104.75;;;;;;;;5021853;28;51136;-47
2022/01/24 03:55:17;;;;;;;;;129.00;107.00;;;;;;;;5016933;28;51457;-49
2022/01/24 03:58:20;;;;;;;;;128.00;109.25;;;;;;;;5021613;28;51218;-51
2022/01/24 04:01:09;;;;;;;;;123.50;104.50;;;;;;;;5022376;28;51122;-49
2022/01/24 04:04:05;;;;;;;;;111.00;97.25;;;;;;;;5019718;28;51242;-46
2022/01/24 04:07:08;;;;;;;;;113.00;99.75;;;;;;;;5020668;28;51558;-45
2022/01/24 04:10:17;;;;;;;;;124.25;103.75;;;;;;;;5020538;28;51244;-46
2022/01/24 04:13:21;;;;;;;;;108.50;94.50;;;;;;;;5021882;28;51403;-51
2022/01/24 04:16:23;;;;;;;;;122.75;102.75;;;;;;;;5023083;28;51153;-44
2022/01/24 04:22:50;;;;;;;;;105.25;94.00;;;;;;;;5019654;28;51105;-47
2022/01/24 04:25:35;;;;;;;;;120.00;106.25;;;;;;;;5015298;28;51564;-46
2022/01/24 04:28:23;;;;;;;;;116.25;96.00;;;;;;;;5022903;28;51494;-47
2022/01/24 04:31:08;;;;;;;;;112.50;97.00;;;;;;;;5023651;28;51432;-48
2022/01/24 04:34:14;;;;;;;;;115.75;98.75;;;;;;;;5021959;28;51465;-47
2022/01/24 04:37:01;;;;;;;;;130.25;109.50;;;;;;;;5021976;28;51176;-49
2022/01/24 04:39:47;;;;;;;;;122.25;99.50;;;;;;;;5022898;28;51154;-46
2022/01/24 04:42:57;;;;;;;;;113.25;100.75;;;;;;;;5023132;28;51205;-48
2022/01/24 04:55:01;;;;;;;;;115.75;96.75;;;;;;;;5021187;28;51135;-47
2022/01/24 04:57:47;;;;;;;;;115.00;100.75;;;;;;;;5023528;28;51086;-48
2022/01/24 05:00:34;;;;;;;;;122.50;108.25;;;;;;;;5021843;28;51315;-48
2022/01/24 05:03:20;;;;;;;;;110.50;93.50;;;;;;;;5022791;28;51121;-49
2022/01/24 05:06:31;;;;;;;;;113.25;95.00;;;;;;;;5019648;28;51143;-46
2022/01/24 05:09:18;;;;;;;;;120.75;103.75;;;;;;;;5018880;28;51145;-47
2022/01/24 05:23:25;;;;;;;;;132.75;111.00;;;;;;;;4957055;28;52216;-45
2022/01/24 05:24:41;;;;;;;;;142.50;118.75;;;;;;;;5016794;28;51118;-45
2022/01/24 05:27:26;;;;;;;;;131.50;115.25;;;;;;;;5022127;28;51439;-53
2022/01/24 05:30:16;;;;;;;;;132.00;112.75;;;;;;;;5018690;28;51240;-44
2022/01/24 05:33:02;;;;;;;;;131.25;111.00;;;;;;;;5005615;28;51352;-47
2022/01/24 05:35:49;;;;;;;;;139.50;113.75;;;;;;;;5025088;28;51252;-49
2022/01/24 05:38:42;;;;;;;;;134.50;111.00;;;;;;;;5016269;28;51052;-50
2022/01/24 05:41:26;;;;;;;;;138.25;116.50;;;;;;;;5024189;28;51626;-48
2022/01/24 05:44:13;;;;;;;;;130.50;112.25;;;;;;;;5018982;28;51180;-47
2022/01/24 05:46:58;;;;;;;;;129.50;111.75;;;;;;;;5018096;28;51184;-46
2022/01/24 05:49:43;;;;;;;;;118.75;102.75;;;;;;;;5018770;28;51038;-50
2022/01/24 05:52:27;;;;;;;;;125.00;101.25;;;;;;;;5019532;28;51520;-50
2022/01/24 05:55:18;;;;;;;;;120.75;98.75;;;;;;;;5018748;28;51364;-46
2022/01/24 05:58:12;;;;;;;;;129.75;104.75;;;;;;;;5018704;28;50963;-49
2022/01/24 06:01:10;;;;;;;;;126.75;106.00;;;;;;;;5018053;28;51122;-49
2022/01/24 06:03:54;;;;;;;;;136.25;109.50;;;;;;;;5019086;28;51136;-49
2022/01/24 06:06:47;;;;;;;;;121.00;103.50;;;;;;;;5019788;28;51654;-48
2022/01/24 06:09:32;;;;;;;;;96.75;78.50;;;;;;;;5019052;28;51100;-46
2022/01/24 06:12:19;;;;;;;;;112.50;95.25;;;;;;;;5019928;28;51178;-45
2022/01/24 06:15:04;;;;;;;;;117.00;104.00;;;;;;;;5019860;28;51279;-48
2022/01/24 06:17:52;;;;;;;;;106.50;99.25;;;;;;;;5019158;28;51521;-47
2022/01/24 06:20:39;;;;;;;;;116.00;96.50;;;;;;;;5016892;28;51121;-44
2022/01/24 06:23:29;;;;;;;;;114.00;93.25;;;;;;;;5015547;28;51483;-46
2022/01/24 06:26:14;;;;;;;;;110.75;92.25;;;;;;;;5009247;28;51220;-45
2022/01/24 06:29:04;;;;;;;;;106.50;95.75;;;;;;;;5019773;28;51454;-50
2022/01/24 06:31:50;;;;;;;;;118.50;93.50;;;;;;;;5022287;28;51514;-47
2022/01/24 06:34:37;;;;;;;;;115.00;100.50;;;;;;;;5020569;28;51381;-48
2022/01/24 06:37:21;;;;;;;;;127.50;107.50;;;;;;;;5024254;28;51169;-44
2022/01/24 06:40:08;;;;;;;;;118.50;103.25;;;;;;;;5023564;28;51096;-49
2022/01/24 06:42:54;;;;;;;;;114.75;95.00;;;;;;;;5020451;28;51481;-53
2022/01/24 06:45:40;;;;;;;;;112.25;101.75;;;;;;;;5023628;28;51244;-46
2022/01/24 06:48:24;;;;;;;;;109.50;92.00;;;;;;;;5019349;28;51462;-52
2022/01/24 06:51:10;;;;;;;;;101.75;91.00;;;;;;;;5024928;28;51176;-50
2022/01/24 06:53:56;;;;;;;;;106.25;89.00;;;;;;;;5025654;28;52490;-49
2022/01/24 06:56:42;;;;;;;;;118.75;97.25;;;;;;;;5024350;28;51377;-52
2022/01/24 06:59:36;;;;;;;;;125.25;100.75;;;;;;;;5025287;28;51160;-48
2022/01/24 07:02:21;;;;;;;;;137.50;108.50;;;;;;;;5022830;28;51117;-47
2022/01/24 07:05:33;;;;;;;;;126.25;106.25;;;;;;;;5022922;28;51167;-44
2022/01/24 07:08:19;;;;;;;;;125.25;102.00;;;;;;;;5011699;28;51441;-47
2022/01/24 07:11:05;;;;;;;;;115.25;97.75;;;;;;;;5024678;28;51038;-52
2022/01/24 07:14:05;;;;;;;;;120.50;97.75;;;;;;;;5019935;28;51494;-49
2022/01/24 07:19:42;;;;;;;;;135.75;110.25;;;;;;;;5030200;28;51165;-45
2022/01/24 07:22:47;;;;;;;;;110.75;95.25;;;;;;;;5021742;28;51143;-45
2022/01/24 07:25:38;;;;;;;;;104.00;80.75;;;;;;;;5026222;28;51260;-48
2022/01/24 07:28:23;;;;;;;;;119.00;102.75;;;;;;;;5020926;28;51097;-48
2022/01/24 07:31:18;;;;;;;;;124.00;105.50;;;;;;;;5023765;28;51210;-48
2022/01/24 07:34:07;;;;;;;;;124.50;104.75;;;;;;;;5027037;28;51338;-45
2022/01/24 07:36:52;;;;;;;;;116.75;99.75;;;;;;;;5022573;28;51180;-46
2022/01/24 07:39:38;;;;;;;;;112.75;96.00;;;;;;;;5019701;28;51888;-48
2022/01/24 07:42:39;;;;;;;;;139.50;112.00;;;;;;;;5021255;28;51106;-50
2022/01/24 07:45:24;;;;;;;;;116.00;95.75;;;;;;;;5019063;28;51126;-44
2022/01/24 07:48:09;;;;;;;;;123.50;103.25;;;;;;;;5019763;28;51530;-50
2022/01/24 07:50:53;;;;;;;;;116.25;96.00;;;;;;;;5017666;28;51470;-45
2022/01/24 07:53:42;;;;;;;;;115.00;94.75;;;;;;;;5021116;28;51581;-49
2022/01/24 07:56:34;;;;;;;;;121.50;104.25;;;;;;;;5014733;28;51190;-49
2022/01/24 07:59:29;;;;;;;;;119.75;104.00;;;;;;;;5014312;28;51581;-50
2022/01/24 08:02:23;;;;;;;;;123.00;101.25;;;;;;;;5013136;28;51344;-48
2022/01/24 08:05:10;;;;;;;;;113.00;92.25;;;;;;;;5018955;28;51193;-52
2022/01/24 08:07:56;;;;;;;;;117.00;95.25;;;;;;;;5022556;28;51151;-46
2022/01/24 08:10:43;;;;;;;;;121.50;103.75;;;;;;;;5019474;28;51162;-44
2022/01/24 08:13:31;;;;;;;;;107.50;94.50;;;;;;;;5020298;28;51169;-51
2022/01/24 08:16:26;;;;;;;;;113.25;92.25;;;;;;;;5021829;28;51546;-45
2022/01/24 08:19:11;;;;;;;;;118.50;101.75;;;;;;;;5004211;28;51385;-46
2022/01/24 08:22:26;;;;;;;;;107.75;100.25;;;;;;;;5019075;28;51217;-49
2022/01/24 08:25:22;;;;;;;;;117.25;97.50;;;;;;;;5022485;28;51157;-45
2022/01/24 08:28:09;;;;;;;;;117.50;100.00;;;;;;;;5022039;28;51176;-50
2022/01/24 08:30:53;;;;;;;;;118.50;99.75;;;;;;;;5017341;28;51327;-50
2022/01/24 08:33:37;;;;;;;;;124.00;109.75;;;;;;;;5019942;28;51106;-51
2022/01/24 08:36:22;;;;;;;;;131.75;114.25;;;;;;;;5018018;28;51028;-53
2022/01/24 08:39:08;;;;;;;;;115.75;107.00;;;;;;;;5018658;28;51426;-48
2022/01/24 08:47:25;;;;;;;;;131.50;108.00;;;;;;;;5017609;28;51172;-47
2022/01/24 08:50:09;;;;;;;;;125.25;110.75;;;;;;;;5000791;28;51418;-48
2022/01/24 08:52:59;;;;;;;;;120.50;104.50;;;;;;;;5017359;28;51511;-47
2022/01/24 08:55:44;;;;;;;;;101.00;85.25;;;;;;;;5018437;28;51988;-46
2022/01/24 08:58:28;;;;;;;;;127.50;112.25;;;;;;;;5019096;28;51091;-50
2022/01/24 09:01:14;;;;;;;;;122.50;103.75;;;;;;;;5019289;28;51144;-47
2022/01/24 09:04:00;;;;;;;;;120.75;106.00;;;;;;;;5018197;28;51367;-45
2022/01/24 09:06:46;;;;;;;;;122.50;104.00;;;;;;;;5003097;28;51224;-47
2022/01/24 09:09:34;;;;;;;;;124.25;105.00;;;;;;;;5018437;28;51142;-47
2022/01/24 09:12:19;;;;;;;;;105.75;92.75;;;;;;;;5017990;28;52318;-48
2022/01/24 09:15:06;;;;;;;;;131.00;112.50;;;;;;;;5016951;28;51118;-53
2022/01/24 09:17:51;;;;;;;;;129.50;114.50;;;;;;;;5017902;28;51305;-49
2022/01/24 09:20:44;;;;;;;;;130.75;115.50;;;;;;;;5017989;28;51430;-46
2022/01/24 09:23:33;;;;;;;;;128.25;106.75;;;;;;;;5018554;28;51141;-47
2022/01/24 09:26:19;;;;;;;;;118.50;107.25;;;;;;;;5018297;28;51106;-47
2022/01/24 09:29:08;;;;;;;;;112.25;97.00;;;;;;;;5003608;28;51226;-47
2022/01/24 09:31:53;;;;;;;;;112.25;96.75;;;;;;;;5020161;28;51303;-52
2022/01/24 09:34:39;;;;;;;;;122.25;103.75;;;;;;;;5017497;28;51073;-51
2022/01/24 09:37:26;;;;;;;;;129.00;107.75;;;;;;;;5018341;28;51317;-49
2022/01/24 09:40:15;;;;;;;;;110.00;101.00;;;;;;;;5018408;28;51334;-45
2022/01/24 09:43:14;;;;;;;;;124.00;109.25;;;;;;;;5018395;28;51083;-47
2022/01/24 09:46:02;;;;;;;;;118.50;106.75;;;;;;;;5014838;28;51479;-53
2022/01/24 09:48:49;;;;;;;;;119.75;106.00;;;;;;;;5016820;28;51201;-51
2022/01/24 09:51:37;;;;;;;;;115.25;102.25;;;;;;;;5016277;28;51178;-47
2022/01/24 09:54:25;;;;;;;;;116.50;103.75;;;;;;;;4999904;28;51483;-45
2022/01/24 09:57:19;;;;;;;;;120.50;104.75;;;;;;;;4976300;28;51389;-44
2022/01/24 10:00:11;;;;;;;;;117.25;108.50;;;;;;;;5016201;28;51259;-41
2022/01/24 10:02:55;;;;;;;;;127.00;102.75;;;;;;;;4982484;28;51124;-47
2022/01/24 10:09:04;;;;;;;;;81.00;73.25;;;;;;;;5023432;28;51230;-44
2022/01/24 10:12:35;;;;;;;;;85.50;75.75;;;;;;;;5019085;28;51656;-44
2022/01/24 10:18:19;;;;;;;;;75.75;68.00;;;;;;;;5021921;28;51205;-44
2022/01/24 10:21:15;;;;;;;;;79.75;68.00;;;;;;;;5019958;28;51501;-41
2022/01/24 10:24:00;;;;;;;;;79.75;67.25;;;;;;;;5022516;28;51630;-45
2022/01/24 10:27:11;;;;;;;;;79.00;66.00;;;;;;;;5021485;28;51137;-45
2022/01/24 10:29:56;;;;;;;;;76.00;69.25;;;;;;;;5020110;28;51535;-47
2022/01/24 10:32:48;;;;;;;;;98.75;89.25;;;;;;;;5018013;28;51273;-49
2022/01/24 10:35:38;;;;;;;;;85.75;78.75;;;;;;;;5015761;28;51419;-43
2022/01/24 10:38:52;;;;;;;;;139.50;127.00;;;;;;;;5017485;28;51233;-47
2022/01/24 10:41:56;;;;;;;;;90.75;82.50;;;;;;;;5021675;28;51250;-43
2022/01/24 10:44:40;;;;;;;;;83.75;78.00;;;;;;;;5019499;28;51238;-45
2022/01/24 10:47:30;;;;;;;;;81.75;75.00;;;;;;;;5020367;28;51394;-43
2022/01/24 10:50:28;;;;;;;;;77.25;64.50;;;;;;;;5022527;28;51445;-44
2022/01/24 10:53:25;;;;;;;;;72.25;65.25;;;;;;;;5016947;28;51496;-47
2022/01/24 10:56:27;;;;;;;;;78.00;68.50;;;;;;;;5020273;28;51047;-43
2022/01/24 10:59:13;;;;;;;;;63.75;51.00;;;;;;;;5020335;28;51465;-42
2022/01/24 11:02:01;;;;;;;;;76.25;66.25;;;;;;;;5020432;28;51205;-45
2022/01/24 11:04:50;;;;;;;;;80.25;65.25;;;;;;;;5019433;28;51264;-48
2022/01/24 11:07:48;;;;;;;;;73.50;57.00;;;;;;;;5021755;28;51240;-45
2022/01/24 11:10:34;;;;;;;;;76.00;66.25;;;;;;;;5003708;28;51409;-45
2022/01/24 11:13:31;;;;;;;;;72.25;63.25;;;;;;;;5018222;28;51497;-44
2022/01/24 11:16:19;;;;;;;;;72.50;62.50;;;;;;;;5019572;28;51573;-44
2022/01/24 11:19:15;;;;;;;;;72.50;61.75;;;;;;;;5016441;28;51193;-45
2022/01/24 11:22:01;;;;;;;;;76.75;67.50;;;;;;;;4999859;28;51281;-44
2022/01/24 11:24:56;;;;;;;;;76.00;66.75;;;;;;;;5012834;28;51173;-44
2022/01/24 11:27:43;;;;;;;;;74.50;68.50;;;;;;;;5023616;28;51141;-44
2022/01/24 11:30:52;;;;;;;;;68.75;54.25;;;;;;;;5021551;28;51078;-44
2022/01/24 11:33:40;;;;;;;;;70.50;59.25;;;;;;;;5016779;28;51173;-45
2022/01/24 11:36:40;;;;;;;;;69.75;53.75;;;;;;;;5024001;28;51548;-45
2022/01/24 11:39:27;;;;;;;;;74.00;57.00;;;;;;;;5017115;28;51504;-42
2022/01/24 11:42:28;;;;;;;;;66.00;52.25;;;;;;;;5019349;28;51530;-49
2022/01/24 11:45:17;;;;;;;;;68.00;54.50;;;;;;;;5019450;28;51181;-45
2022/01/24 11:48:13;;;;;;;;;69.00;51.25;;;;;;;;5019182;28;51165;-46
2022/01/24 11:51:12;;;;;;;;;68.00;56.50;;;;;;;;5018748;28;51148;-44
2022/01/24 11:53:58;;;;;;;;;70.75;55.00;;;;;;;;5007395;28;51292;-45
2022/01/24 11:57:03;;;;;;;;;69.50;54.00;;;;;;;;5022787;28;51239;-44
2022/01/24 12:00:17;;;;;;;;;68.50;56.50;;;;;;;;5018783;28;51193;-47
2022/01/24 12:03:12;;;;;;;;;70.25;56.00;;;;;;;;5008950;28;51352;-43
2022/01/24 12:06:19;;;;;;;;;70.25;54.50;;;;;;;;5023655;28;51400;-42
2022/01/24 12:09:05;;;;;;;;;70.00;59.75;;;;;;;;5019700;28;52440;-46
2022/01/24 12:11:52;;;;;;;;;69.75;54.75;;;;;;;;5018478;28;51107;-46
2022/01/24 12:14:45;;;;;;;;;69.00;52.50;;;;;;;;5017377;28;50979;-42
2022/01/24 12:17:49;;;;;;;;;70.00;53.00;;;;;;;;5018632;28;51114;-51
2022/01/24 12:20:36;;;;;;;;;72.00;57.75;;;;;;;;5019383;28;51204;-49
2022/01/24 12:23:21;;;;;;;;;69.25;54.00;;;;;;;;5018607;28;50996;-49
2022/01/24 12:26:18;;;;;;;;;73.75;59.25;;;;;;;;5018005;28;51825;-47
2022/01/24 12:29:22;;;;;;;;;74.50;61.75;;;;;;;;5022645;28;51019;-47
2022/01/24 12:32:20;;;;;;;;;74.00;61.00;;;;;;;;5020574;28;51279;-53
2022/01/24 12:35:24;;;;;;;;;70.25;55.00;;;;;;;;5021551;28;51717;-52
2022/01/24 12:38:15;;;;;;;;;73.00;60.75;;;;;;;;5020557;28;51234;-51
2022/01/24 12:41:18;;;;;;;;;70.25;57.50;;;;;;;;5016562;28;51023;-48
2022/01/24 12:46:50;;;;;;;;;69.25;56.25;;;;;;;;4999046;28;51201;-46
2022/01/24 12:49:35;;;;;;;;;70.00;59.75;;;;;;;;5012852;28;52124;-50
2022/01/24 12:52:22;;;;;;;;;69.50;53.75;;;;;;;;5019504;28;51158;-49
2022/01/24 12:55:21;;;;;;;;;69.25;57.50;;;;;;;;5019257;28;51206;-52
2022/01/24 12:58:12;;;;;;;;;72.25;62.50;;;;;;;;5019100;28;51334;-52
2022/01/24 13:01:01;;;;;;;;;69.25;54.00;;;;;;;;5017247;28;51626;-51
2022/01/24 13:03:47;;;;;;;;;66.25;54.25;;;;;;;;5022030;28;51110;-49
2022/01/24 13:06:35;;;;;;;;;71.50;57.50;;;;;;;;5015261;28;51244;-52
2022/01/24 13:09:25;;;;;;;;;71.00;53.75;;;;;;;;5018678;28;51168;-50
2022/01/24 13:12:22;;;;;;;;;74.25;60.00;;;;;;;;5019105;28;51204;-50
2022/01/24 13:21:33;;;;;;;;;60.50;48.00;;;;;;;;4959165;28;51196;-53
2022/01/24 13:24:28;;;;;;;;;70.25;57.50;;;;;;;;4963130;28;51156;-48
2022/01/24 13:27:24;;;;;;;;;71.50;55.25;;;;;;;;4959114;28;51753;-48
2022/01/24 13:30:15;;;;;;;;;67.50;55.00;;;;;;;;5010536;28;51454;-45
2022/01/24 13:33:06;;;;;;;;;64.75;50.25;;;;;;;;5014738;28;51260;-42
2022/01/24 13:36:07;;;;;;;;;68.50;51.50;;;;;;;;5017791;28;51590;-42
2022/01/24 13:39:17;;;;;;;;;70.50;57.50;;;;;;;;5018762;28;51090;-50
2022/01/24 13:42:06;;;;;;;;;68.00;50.25;;;;;;;;5015821;28;51098;-46
2022/01/24 13:44:51;;;;;;;;;66.75;52.75;;;;;;;;5017977;28;51253;-44
2022/01/24 13:47:38;;;;;;;;;65.25;52.50;;;;;;;;5016910;28;51139;-48
2022/01/24 13:50:24;;;;;;;;;66.50;50.25;;;;;;;;5017491;28;51601;-49
2022/01/24 13:53:10;;;;;;;;;64.00;50.25;;;;;;;;5016223;28;51675;-48
2022/01/24 13:55:58;;;;;;;;;71.75;57.00;;;;;;;;5016300;28;51159;-48
2022/01/24 13:58:43;;;;;;;;;70.00;56.75;;;;;;;;5019094;28;51153;-45
2022/01/24 14:01:29;;;;;;;;;71.00;53.50;;;;;;;;5015754;28;51413;-46
2022/01/24 14:04:15;;;;;;;;;69.75;51.75;;;;;;;;4988561;28;51393;-47
2022/01/24 14:07:02;;;;;;;;;71.00;53.25;;;;;;;;5017154;28;51577;-48
2022/01/24 14:10:09;;;;;;;;;69.50;54.00;;;;;;;;5000327;28;51286;-47
2022/01/24 14:12:57;;;;;;;;;69.50;53.00;;;;;;;;5002339;28;51205;-44
2022/01/24 14:16:11;;;;;;;;;67.75;55.25;;;;;;;;5008596;28;51145;-48
2022/01/24 14:19:04;;;;;;;;;68.00;54.50;;;;;;;;5014754;28;51296;-47
2022/01/24 14:22:07;;;;;;;;;69.00;56.25;;;;;;;;5003433;28;51667;-45
2022/01/24 14:25:01;;;;;;;;;70.50;53.50;;;;;;;;5012105;28;51322;-45
2022/01/24 14:27:54;;;;;;;;;67.50;52.75;;;;;;;;5010126;28;51204;-48
2022/01/24 14:30:49;;;;;;;;;66.75;51.50;;;;;;;;5011461;28;51283;-44
2022/01/24 14:33:37;;;;;;;;;66.50;51.50;;;;;;;;5012586;28;51740;-47
2022/01/24 14:36:43;;;;;;;;;71.25;53.00;;;;;;;;5013443;28;51233;-47
2022/01/24 14:39:27;;;;;;;;;67.00;53.75;;;;;;;;5013026;28;51638;-49
2022/01/24 14:42:43;;;;;;;;;68.25;53.00;;;;;;;;5015792;28;51115;-45
2022/01/24 14:45:49;;;;;;;;;69.75;53.75;;;;;;;;5014315;28;51420;-47
2022/01/24 14:48:48;;;;;;;;;66.75;53.25;;;;;;;;5016559;28;51551;-46
2022/01/24 14:51:34;;;;;;;;;66.75;52.25;;;;;;;;5017582;28;51271;-45
2022/01/24 14:54:26;;;;;;;;;54.00;41.75;;;;;;;;5021239;28;51190;-45
2022/01/24 14:57:16;;;;;;;;;68.25;52.00;;;;;;;;5004171;28;52206;-47
2022/01/24 15:00:07;;;;;;;;;67.50;53.00;;;;;;;;5002378;28;51712;-48
2022/01/24 15:03:04;;;;;;;;;69.25;51.50;;;;;;;;5024302;28;51386;-47
2022/01/24 15:06:10;;;;;;;;;67.75;51.25;;;;;;;;5021406;28;51631;-49
2022/01/24 15:08:57;;;;;;;;;71.00;57.75;;;;;;;;5017547;28;51180;-50
2022/01/24 15:11:54;;;;;;;;;68.00;50.50;;;;;;;;5020569;28;51180;-45
2022/01/24 15:14:44;;;;;;;;;71.75;59.00;;;;;;;;5017955;28;51476;-47
2022/01/24 15:24:25;;;;;;;;;67.75;51.75;;;;;;;;5018004;28;51258;-51
2022/01/24 15:27:06;;;;;;;;;70.75;56.25;;;;;;;;5022843;28;51206;-48
2022/01/24 15:30:02;;;;;;;;;66.00;51.00;;;;;;;;5020156;28;51200;-48
2022/01/24 15:33:00;;;;;;;;;64.50;48.75;;;;;;;;5017728;28;51117;-47
2022/01/24 15:35:56;;;;;;;;;67.25;50.75;;;;;;;;5019633;28;51278;-51
2022/01/24 15:38:44;;;;;;;;;70.50;56.75;;;;;;;;5013002;28;52102;-46
2022/01/24 15:41:31;;;;;;;;;69.25;53.75;;;;;;;;5017976;28;51595;-47
2022/01/24 15:44:34;;;;;;;;;67.00;53.25;;;;;;;;5018886;28;52479;-49
2022/01/24 15:47:47;;;;;;;;;67.25;51.00;;;;;;;;5019113;28;51141;-47
2022/01/24 15:50:31;;;;;;;;;66.00;50.50;;;;;;;;5019837;28;51110;-46
2022/01/24 15:53:30;;;;;;;;;65.25;51.00;;;;;;;;5019770;28;51667;-49
2022/01/24 15:59:09;;;;;;;;;60.75;48.00;;;;;;;;5018741;28;51198;-47
2022/01/24 16:02:00;;;;;;;;;69.50;52.50;;;;;;;;5018891;28;51193;-49
2022/01/24 16:04:46;;;;;;;;;66.75;50.50;;;;;;;;4989533;28;51771;-49
2022/01/24 16:07:43;;;;;;;;;66.50;51.25;;;;;;;;5019273;28;51747;-50
2022/01/24 16:10:33;;;;;;;;;70.50;56.00;;;;;;;;5019170;28;51135;-47
2022/01/24 16:13:22;;;;;;;;;66.00;52.00;;;;;;;;5019258;28;51188;-46
2022/01/24 16:16:21;;;;;;;;;67.75;51.00;;;;;;;;5014974;28;51190;-50
2022/01/24 16:19:27;;;;;;;;;67.25;50.75;;;;;;;;5017371;28;51562;-49
2022/01/24 16:22:29;;;;;;;;;68.50;53.25;;;;;;;;5018668;28;51020;-47
2022/01/24 16:25:22;;;;;;;;;71.00;52.50;;;;;;;;5016859;28;51109;-50
2022/01/24 16:28:46;;;;;;;;;70.75;53.75;;;;;;;;5017759;28;51240;-47
2022/01/24 16:31:53;;;;;;;;;71.50;53.00;;;;;;;;5015960;28;51111;-46
2022/01/24 16:34:50;;;;;;;;;68.00;52.50;;;;;;;;5016047;28;51117;-48
2022/01/24 16:37:36;;;;;;;;;65.75;52.00;;;;;;;;5016738;28;51130;-49
2022/01/24 16:40:46;;;;;;;;;69.50;52.75;;;;;;;;5019611;28;51578;-48
2022/01/24 16:49:24;;;;;;;;;64.75;48.25;;;;;;;;5017255;28;51456;-47
2022/01/24 16:52:09;;;;;;;;;74.75;58.25;;;;;;;;5017266;28;51279;-44
2022/01/24 16:54:53;;;;;;;;;70.50;54.00;;;;;;;;5016763;28;51304;-47
2022/01/24 16:57:38;;;;;;;;;73.50;58.50;;;;;;;;5017683;28;51263;-45
2022/01/24 17:00:30;;;;;;;;;69.00;54.75;;;;;;;;5015370;28;51224;-44
2022/01/24 17:03:16;;;;;;;;;70.25;54.75;;;;;;;;5019848;28;51231;-47
2022/01/24 17:06:02;;;;;;;;;69.75;56.50;;;;;;;;5018408;28;51203;-47
2022/01/24 17:08:59;;;;;;;;;67.50;50.50;;;;;;;;5018757;28;51105;-48
2022/01/24 17:11:58;;;;;;;;;69.00;53.75;;;;;;;;5019445;28;51165;-46
2022/01/24 17:15:04;;;;;;;;;66.50;51.00;;;;;;;;5019545;28;51078;-46
2022/01/24 17:18:09;;;;;;;;;68.50;52.75;;;;;;;;5017712;28;51485;-48
2022/01/24 17:20:56;;;;;;;;;72.00;57.75;;;;;;;;5018348;28;51126;-45
2022/01/24 17:23:44;;;;;;;;;72.00;55.00;;;;;;;;5014920;28;51713;-49
2022/01/24 17:26:37;;;;;;;;;74.50;56.75;;;;;;;;5013394;28;51478;-52
2022/01/24 17:29:34;;;;;;;;;70.50;54.25;;;;;;;;5016822;28;51132;-48
2022/01/24 17:32:28;;;;;;;;;73.25;58.25;;;;;;;;5017822;28;51105;-49
2022/01/24 17:35:23;;;;;;;;;72.00;56.50;;;;;;;;5004891;28;51211;-47
2022/01/24 17:38:09;;;;;;;;;75.50;62.25;;;;;;;;5016301;28;51398;-49
2022/01/24 17:41:09;;;;;;;;;74.00;58.00;;;;;;;;4998922;28;51397;-49
2022/01/24 17:43:53;;;;;;;;;76.25;59.75;;;;;;;;5012998;28;51153;-48
2022/01/24 17:46:38;;;;;;;;;69.25;54.00;;;;;;;;5015182;28;51397;-50
2022/01/24 17:49:23;;;;;;;;;71.00;59.75;;;;;;;;5015924;28;51936;-49
2022/01/24 17:52:09;;;;;;;;;74.25;63.75;;;;;;;;5016258;28;51237;-51
2022/01/24 17:54:54;;;;;;;;;74.50;63.50;;;;;;;;5014823;28;51083;-47
2022/01/24 17:57:40;;;;;;;;;72.50;57.50;;;;;;;;5015445;28;51218;-47
2022/01/24 18:00:28;;;;;;;;;73.00;56.75;;;;;;;;5016634;28;51105;-47
2022/01/24 18:03:13;;;;;;;;;73.50;57.50;;;;;;;;5016178;28;51475;-46
2022/01/24 18:05:59;;;;;;;;;73.75;58.25;;;;;;;;5017118;28;51185;-45
2022/01/24 18:08:46;;;;;;;;;72.00;56.25;;;;;;;;5016438;28;51949;-46
2022/01/24 18:11:30;;;;;;;;;73.50;60.00;;;;;;;;5016245;28;51215;-51
2022/01/24 18:14:19;;;;;;;;;74.00;59.75;;;;;;;;5016599;28;51252;-46
2022/01/24 18:17:03;;;;;;;;;74.00;58.00;;;;;;;;5014401;28;51501;-45
2022/01/24 18:19:49;;;;;;;;;70.25;54.75;;;;;;;;5008973;28;51144;-44
2022/01/24 18:22:44;;;;;;;;;73.75;61.00;;;;;;;;5014221;28;51385;-45
2022/01/24 18:25:28;;;;;;;;;75.75;58.75;;;;;;;;5015176;28;51892;-46
2022/01/24 18:28:13;;;;;;;;;77.00;62.25;;;;;;;;5017892;28;51225;-46
2022/01/24 18:30:58;;;;;;;;;73.25;58.25;;;;;;;;5020923;28;51220;-46
2022/01/24 18:33:55;;;;;;;;;72.50;59.75;;;;;;;;5019576;28;51137;-49
2022/01/24 18:36:39;;;;;;;;;70.25;54.00;;;;;;;;5016689;28;51090;-49
2022/01/24 18:39:27;;;;;;;;;75.00;60.75;;;;;;;;5024426;28;51657;-44
2022/01/24 18:42:12;;;;;;;;;75.00;59.25;;;;;;;;5021872;28;52269;-45
2022/01/24 18:44:58;;;;;;;;;73.25;58.25;;;;;;;;5022564;28;51145;-46